createdAt,value
2023-04-17T00:01:44.798Z,42.00
2023-04-17T00:04:13.165Z,38.20
2023-04-17T00:06:43.404Z,46.87
2023-04-17T00:09:11.378Z,37.10
2023-04-17T00:11:38.893Z,43.77
2023-04-17T00:14:06.761Z,42.60
2023-04-17T00:16:34.041Z,47.83
2023-04-17T00:19:01.265Z,46.17
2023-04-17T00:21:32.052Z,43.87
2023-04-17T00:23:59.203Z,35.90
2023-04-17T00:26:26.370Z,39.57
2023-04-17T00:28:53.522Z,38.97
2023-04-17T00:31:20.800Z,44.27
2023-04-17T00:33:48.043Z,39.27
2023-04-17T00:36:15.585Z,51.43
2023-04-17T00:38:42.954Z,43.77
2023-04-17T00:41:10.519Z,48.17
2023-04-17T00:43:37.883Z,42.27
2023-04-17T00:46:06.076Z,42.20
2023-04-17T00:48:34.658Z,42.53
2023-04-17T00:51:03.311Z,35.57
2023-04-17T00:53:31.651Z,46.27
2023-04-17T00:56:04.299Z,36.23
2023-04-17T00:58:31.806Z,43.40
2023-04-17T01:00:58.998Z,41.80
2023-04-17T01:03:26.402Z,41.10
2023-04-17T01:05:53.602Z,39.57
2023-04-17T01:08:20.748Z,38.80
2023-04-17T01:10:47.947Z,40.17
2023-04-17T01:13:15.565Z,40.03
2023-04-17T01:15:43.034Z,38.80
2023-04-17T01:18:10.301Z,47.97
2023-04-17T01:20:37.775Z,44.13
2023-04-17T01:23:04.953Z,37.87
2023-04-17T01:25:32.185Z,41.13
2023-04-17T01:27:59.409Z,43.87
2023-04-17T01:30:26.650Z,44.87
2023-04-17T01:32:55.367Z,47.23
2023-04-17T01:35:22.820Z,47.30
2023-04-17T01:37:50.206Z,45.50
2023-04-17T01:40:17.413Z,40.50
2023-04-17T01:42:44.580Z,44.53
2023-04-17T01:45:11.867Z,51.07
2023-04-17T01:47:41.802Z,40.53
2023-04-17T01:50:09.410Z,40.10
2023-04-17T01:52:36.733Z,44.53
2023-04-17T01:55:04.625Z,45.30
2023-04-17T01:57:31.956Z,47.73
2023-04-17T01:59:59.125Z,49.27
2023-04-17T02:02:26.538Z,46.27
2023-04-17T02:04:53.906Z,44.47
2023-04-17T02:07:21.704Z,44.17
2023-04-17T02:09:48.885Z,43.70
2023-04-17T02:12:16.383Z,52.23
2023-04-17T02:14:43.603Z,52.03
2023-04-17T02:17:10.772Z,47.97
2023-04-17T02:19:38.057Z,52.03
2023-04-17T02:22:05.288Z,52.03
2023-04-17T02:24:32.480Z,50.70
2023-04-17T02:26:59.763Z,50.87
2023-04-17T02:29:26.953Z,52.97
2023-04-17T02:31:54.180Z,51.70
2023-04-17T02:34:21.370Z,53.23
2023-04-17T02:36:48.534Z,44.10
2023-04-17T02:39:15.830Z,47.87
2023-04-17T02:41:43.022Z,45.73
2023-04-17T02:44:10.289Z,52.60
2023-04-17T02:46:39.619Z,53.70
2023-04-17T02:49:06.903Z,48.97
2023-04-17T02:51:34.099Z,50.87
2023-04-17T02:54:01.235Z,54.47
2023-04-17T02:56:28.535Z,54.30
2023-04-17T02:58:56.039Z,54.93
2023-04-17T03:01:23.542Z,51.07
2023-04-17T03:03:52.471Z,55.63
2023-04-17T03:06:20.015Z,51.37
2023-04-17T03:08:47.210Z,50.60
2023-04-17T03:11:14.404Z,49.53
2023-04-17T03:13:41.583Z,57.63
2023-04-17T03:16:08.936Z,54.63
2023-04-17T03:18:40.985Z,48.60
2023-04-17T03:21:08.758Z,58.07
2023-04-17T03:23:36.322Z,51.37
2023-04-17T03:26:03.521Z,61.37
2023-04-17T03:28:31.023Z,60.93
2023-04-17T03:30:59.514Z,53.80
2023-04-17T03:33:27.318Z,59.23
2023-04-17T03:35:54.448Z,52.73
2023-04-17T03:38:21.617Z,56.30
2023-04-17T03:40:48.725Z,54.07
2023-04-17T03:43:15.874Z,53.60
2023-04-17T03:45:43.041Z,57.97
2023-04-17T03:48:10.325Z,58.17
2023-04-17T03:50:37.697Z,54.97
2023-04-17T03:53:04.865Z,58.10
2023-04-17T03:55:32.091Z,58.90
2023-04-17T03:57:59.241Z,55.20
2023-04-17T04:00:26.458Z,56.47
2023-04-17T04:02:53.953Z,59.00
2023-04-17T04:05:21.336Z,69.10
2023-04-17T04:07:48.599Z,60.63
2023-04-17T04:10:15.819Z,60.37
2023-04-17T04:12:43.359Z,55.43
2023-04-17T04:15:10.579Z,62.03
2023-04-17T04:17:41.855Z,55.90
2023-04-17T04:20:09.437Z,65.47
2023-04-17T04:22:36.759Z,61.60
2023-04-17T04:25:03.958Z,55.53
2023-04-17T04:27:32.964Z,56.23
2023-04-17T04:30:02.017Z,58.87
2023-04-17T04:32:29.734Z,59.40
2023-04-17T04:34:58.545Z,59.17
2023-04-17T04:37:30.104Z,63.63
2023-04-17T04:40:10.035Z,60.23
2023-04-17T04:42:41.981Z,61.67
2023-04-17T04:45:10.375Z,54.50
2023-04-17T04:47:39.691Z,61.07
2023-04-17T04:50:07.470Z,61.03
2023-04-17T04:52:34.827Z,54.90
2023-04-17T04:55:02.076Z,64.33
2023-04-17T04:57:29.508Z,54.83
2023-04-17T04:59:56.654Z,56.67
2023-04-17T05:02:23.877Z,59.53
2023-04-17T05:04:52.236Z,51.10
2023-04-17T05:07:19.409Z,58.93
2023-04-17T05:09:46.566Z,52.00
2023-04-17T05:12:13.823Z,58.00
2023-04-17T05:14:40.992Z,59.13
2023-04-17T05:17:08.574Z,55.07
2023-04-17T05:19:35.844Z,55.80
2023-04-17T05:22:03.005Z,65.47
2023-04-17T05:24:31.062Z,59.47
2023-04-17T05:26:58.212Z,62.93
2023-04-17T05:29:25.345Z,54.80
2023-04-17T05:31:52.682Z,54.93
2023-04-17T05:34:19.892Z,52.77
2023-04-17T05:36:47.153Z,62.40
2023-04-17T05:39:14.314Z,62.00
2023-04-17T05:41:41.520Z,59.23
2023-04-17T05:44:08.735Z,58.23
2023-04-17T05:46:36.026Z,59.03
2023-04-17T05:49:03.228Z,54.43
2023-04-17T05:51:30.430Z,55.70
2023-04-17T05:53:57.592Z,59.67
2023-04-17T05:56:24.746Z,55.27
2023-04-17T05:58:51.942Z,59.40
2023-04-17T06:01:22.740Z,53.30
2023-04-17T06:03:50.190Z,47.83
2023-04-17T06:06:17.485Z,48.17
2023-04-17T06:08:44.668Z,47.10
2023-04-17T06:11:11.935Z,53.27
2023-04-17T06:13:39.318Z,55.67
2023-04-17T06:16:06.650Z,48.53
2023-04-17T06:18:33.775Z,62.10
2023-04-17T06:21:01.088Z,46.67
2023-04-17T06:23:28.481Z,51.07
2023-04-17T06:25:55.652Z,48.63
2023-04-17T06:28:22.918Z,57.20
2023-04-17T06:30:50.132Z,52.80
2023-04-17T06:33:17.313Z,54.50
2023-04-17T06:35:44.548Z,45.33
2023-04-17T06:38:11.722Z,53.93
2023-04-17T06:40:38.951Z,45.07
2023-04-17T06:43:06.229Z,47.17
2023-04-17T06:45:36.275Z,51.37
2023-04-17T06:48:03.516Z,55.37
2023-04-17T06:50:30.722Z,53.17
2023-04-17T06:52:57.934Z,49.57
2023-04-17T06:55:25.505Z,46.60
2023-04-17T06:57:52.636Z,51.13
2023-04-17T07:00:20.175Z,50.07
2023-04-17T07:02:47.532Z,46.30
2023-04-17T07:05:14.736Z,48.37
2023-04-17T07:07:42.002Z,48.63
2023-04-17T07:10:09.476Z,46.30
2023-04-17T07:12:36.811Z,46.77
2023-04-17T07:15:04.223Z,49.20
2023-04-17T07:17:31.521Z,48.27
2023-04-17T07:19:58.894Z,53.90
2023-04-17T07:22:27.423Z,56.77
2023-04-17T07:24:54.737Z,52.03
2023-04-17T07:27:22.115Z,54.40
2023-04-17T07:29:54.455Z,59.50
2023-04-17T07:32:24.296Z,58.43
2023-04-17T07:34:51.564Z,57.83
2023-04-17T07:37:18.808Z,58.10
2023-04-17T07:39:46.042Z,49.67
2023-04-17T07:42:13.194Z,52.97
2023-04-17T07:44:40.559Z,59.27
2023-04-17T07:47:07.808Z,53.87
2023-04-17T07:49:35.310Z,60.70
2023-04-17T07:52:02.605Z,62.87
2023-04-17T07:54:32.004Z,62.70
2023-04-17T07:57:05.852Z,58.00
2023-04-17T07:59:33.026Z,60.43
2023-04-17T08:02:00.451Z,60.13
2023-04-17T08:04:27.877Z,64.57
2023-04-17T08:06:55.405Z,70.43
2023-04-17T08:09:22.586Z,55.00
2023-04-17T08:11:56.958Z,77.77
2023-04-17T08:14:25.030Z,64.17
2023-04-17T08:16:52.461Z,58.97
2023-04-17T08:19:19.774Z,53.47
2023-04-17T08:21:50.674Z,52.63
2023-04-17T08:24:19.771Z,59.77
2023-04-17T08:26:47.466Z,62.17
2023-04-17T08:29:14.881Z,59.33
2023-04-17T08:31:42.399Z,60.60
2023-04-17T08:34:14.997Z,57.40
2023-04-17T08:36:43.156Z,60.30
2023-04-17T08:39:12.326Z,53.70
2023-04-17T08:41:56.629Z,55.23
2023-04-17T08:44:23.767Z,56.77
2023-04-17T08:46:51.648Z,56.17
2023-04-17T08:49:18.923Z,62.47
2023-04-17T08:51:47.188Z,55.27
2023-04-17T08:54:14.426Z,55.67
2023-04-17T08:56:41.630Z,52.57
2023-04-17T08:59:09.197Z,52.03
2023-04-17T09:01:37.734Z,62.80
2023-04-17T09:04:05.454Z,56.70
2023-04-17T09:06:49.520Z,49.70
2023-04-17T09:09:16.976Z,49.13
2023-04-17T09:11:44.230Z,49.37
2023-04-17T09:14:30.493Z,46.87
2023-04-17T09:16:58.015Z,47.10
2023-04-17T09:19:25.219Z,44.67
2023-04-17T09:21:54.278Z,50.70
2023-04-17T09:24:37.940Z,48.50
2023-04-17T09:27:21.817Z,42.00
2023-04-17T09:29:59.893Z,43.08
2023-04-17T09:32:27.499Z,40.50
2023-04-17T09:34:56.969Z,53.83
2023-04-17T09:37:24.443Z,37.60
2023-04-17T09:40:01.300Z,39.53
2023-04-17T09:42:28.768Z,40.05
2023-04-17T09:44:55.955Z,33.35
2023-04-17T09:47:23.613Z,40.47
2023-04-17T09:49:54.074Z,31.77
2023-04-17T09:52:23.500Z,30.88
2023-04-17T09:54:53.614Z,34.70
2023-04-17T09:57:21.120Z,29.60
2023-04-17T09:59:49.241Z,27.50
2023-04-17T10:02:21.227Z,24.70
2023-04-17T10:04:48.619Z,23.75
2023-04-17T10:07:17.158Z,25.08
2023-04-17T10:09:47.339Z,24.75
2023-04-17T10:12:16.109Z,22.75
2023-04-17T10:14:48.339Z,24.13
2023-04-17T10:17:37.483Z,20.83
2023-04-17T10:20:23.355Z,21.67
2023-04-17T10:22:54.538Z,22.02
2023-04-17T10:25:22.760Z,20.92
2023-04-17T10:27:51.145Z,19.00
2023-04-17T10:33:10.150Z,21.15
2023-04-17T10:35:37.631Z,17.63
2023-04-17T10:38:06.121Z,17.67
2023-04-17T10:40:37.659Z,17.70
2023-04-17T10:43:23.327Z,15.93
2023-04-17T10:46:00.720Z,16.38
2023-04-17T10:48:32.975Z,16.60
2023-04-17T10:51:01.255Z,14.85
2023-04-17T10:53:44.759Z,13.73
2023-04-17T10:56:13.281Z,14.20
2023-04-17T10:58:56.847Z,14.55
2023-04-17T11:01:32.124Z,12.93
2023-04-17T11:03:59.864Z,13.52
2023-04-17T11:06:31.631Z,12.73
2023-04-17T11:08:59.809Z,14.55
2023-04-17T11:11:40.496Z,12.40
2023-04-17T11:14:14.152Z,15.18
2023-04-17T11:16:43.011Z,13.57
2023-04-17T11:19:10.845Z,12.88
2023-04-17T11:21:44.865Z,14.38
2023-04-17T11:24:12.240Z,12.35
2023-04-17T11:26:48.936Z,11.68
2023-04-17T11:29:20.452Z,10.75
2023-04-17T11:31:48.493Z,10.93
2023-04-17T11:34:16.296Z,10.10
2023-04-17T11:36:53.268Z,10.82
2023-04-17T11:39:21.257Z,9.68
2023-04-17T11:41:49.531Z,12.05
2023-04-17T11:44:18.296Z,11.05
2023-04-17T11:47:04.024Z,11.02
2023-04-17T11:49:38.781Z,9.73
2023-04-17T11:52:06.408Z,11.30
2023-04-17T11:54:37.439Z,12.52
2023-04-17T11:57:12.007Z,11.45
2023-04-17T11:59:41.983Z,13.15
2023-04-17T12:02:09.941Z,12.25
2023-04-17T12:04:38.434Z,10.65
2023-04-17T12:07:06.898Z,8.80
2023-04-17T12:09:34.506Z,15.63
2023-04-17T12:12:03.785Z,8.07
2023-04-17T12:14:31.414Z,8.80
2023-04-17T12:16:58.978Z,9.65
2023-04-17T12:19:27.397Z,8.90
2023-04-17T12:21:55.683Z,9.63
2023-04-17T12:24:24.963Z,12.70
2023-04-17T12:26:53.042Z,9.98
2023-04-17T12:29:29.486Z,11.52
2023-04-17T12:32:04.341Z,9.20
2023-04-17T12:34:31.681Z,8.05
2023-04-17T12:36:58.881Z,9.80
2023-04-17T12:39:26.057Z,11.52
2023-04-17T12:41:53.248Z,8.95
2023-04-17T12:44:20.369Z,9.55
2023-04-17T12:46:47.538Z,12.48
2023-04-17T12:49:15.709Z,7.38
2023-04-17T12:51:42.930Z,7.93
2023-04-17T12:56:37.708Z,10.10
2023-04-17T12:59:04.909Z,7.88
2023-04-17T13:01:32.122Z,8.68
2023-04-17T13:03:59.506Z,9.40
2023-04-17T13:06:28.164Z,9.35
2023-04-17T13:08:55.492Z,10.60
2023-04-17T13:11:22.698Z,9.27
2023-04-17T13:13:49.829Z,8.38
2023-04-17T13:16:17.064Z,7.70
2023-04-17T13:18:44.330Z,7.35
2023-04-17T13:21:11.582Z,8.00
2023-04-17T13:23:38.925Z,8.77
2023-04-17T13:26:06.324Z,8.25
2023-04-17T13:28:33.491Z,16.08
2023-04-17T13:31:00.837Z,9.23
2023-04-17T13:33:28.009Z,9.43
2023-04-17T13:35:55.253Z,8.88
2023-04-17T13:38:22.427Z,10.98
2023-04-17T13:40:49.644Z,8.80
2023-04-17T13:43:16.889Z,8.95
2023-04-17T13:45:44.189Z,8.70
2023-04-17T13:48:11.696Z,13.73
2023-04-17T13:50:39.003Z,11.02
2023-04-17T13:53:06.297Z,17.80
2023-04-17T13:55:33.503Z,11.30
2023-04-17T13:58:01.174Z,8.50
2023-04-17T14:00:28.379Z,8.80
2023-04-17T14:02:55.794Z,15.60
2023-04-17T14:05:23.211Z,8.63
2023-04-17T14:07:50.486Z,8.65
2023-04-17T14:10:17.797Z,8.82
2023-04-17T14:12:45.031Z,8.50
2023-04-17T14:15:13.215Z,9.38
2023-04-17T14:17:43.237Z,9.57
2023-04-17T14:20:11.486Z,15.18
2023-04-17T14:22:38.753Z,11.27
2023-04-17T14:25:06.238Z,8.30
2023-04-17T14:27:35.681Z,7.90
2023-04-17T14:30:03.008Z,9.25
2023-04-17T14:32:30.203Z,9.25
2023-04-17T14:34:57.455Z,8.75
2023-04-17T14:37:24.689Z,8.25
2023-04-17T14:39:51.876Z,9.20
2023-04-17T14:42:19.051Z,10.35
2023-04-17T14:44:47.067Z,8.57
2023-04-17T14:47:14.531Z,7.60
2023-04-17T14:49:41.879Z,17.13
2023-04-17T14:52:09.181Z,11.38
2023-04-17T14:54:36.392Z,8.93
2023-04-17T14:57:03.584Z,8.00
2023-04-17T14:59:31.012Z,11.73
2023-04-17T15:01:58.339Z,10.05
2023-04-17T15:04:26.116Z,12.00
2023-04-17T15:06:53.335Z,9.43
2023-04-17T15:09:20.728Z,9.15
2023-04-17T15:11:47.969Z,12.18
2023-04-17T15:14:15.185Z,10.55
2023-04-17T15:16:42.474Z,9.45
2023-04-17T15:19:09.852Z,10.57
2023-04-17T15:21:37.258Z,10.23
2023-04-17T15:24:04.561Z,8.50
2023-04-17T15:26:33.211Z,9.50
2023-04-17T15:29:01.071Z,8.75
2023-04-17T15:31:28.309Z,8.35
2023-04-17T15:33:55.486Z,9.57
2023-04-17T15:36:22.685Z,10.57
2023-04-17T15:38:49.852Z,9.45
2023-04-17T15:41:17.115Z,10.77
2023-04-17T15:43:44.304Z,9.88
2023-04-17T15:46:12.118Z,13.63
2023-04-17T15:48:39.528Z,9.82
2023-04-17T15:51:07.532Z,10.88
2023-04-17T15:53:35.009Z,10.00
2023-04-17T15:56:02.314Z,9.25
2023-04-17T15:58:29.668Z,12.50
2023-04-17T16:00:56.809Z,12.05
2023-04-17T16:03:24.178Z,12.57
2023-04-17T16:05:53.997Z,12.32
2023-04-17T16:08:21.419Z,15.02
2023-04-17T16:10:48.614Z,11.57
2023-04-17T16:13:16.420Z,15.27
2023-04-17T16:15:44.959Z,10.63
2023-04-17T16:18:12.982Z,13.32
2023-04-17T16:20:40.208Z,28.27
2023-04-17T16:23:07.515Z,13.05
2023-04-17T16:25:34.913Z,18.08
2023-04-17T16:28:03.209Z,14.95
2023-04-17T16:30:30.530Z,16.77
2023-04-17T16:32:57.829Z,19.58
2023-04-17T16:35:25.655Z,22.70
2023-04-17T16:37:52.906Z,11.65
2023-04-17T16:40:20.231Z,10.10
2023-04-17T16:42:47.535Z,18.15
2023-04-17T16:45:14.875Z,16.65
2023-04-17T16:47:42.090Z,20.55
2023-04-17T16:50:12.548Z,41.40
2023-04-17T16:52:41.194Z,16.27
2023-04-17T16:55:08.948Z,13.73
2023-04-17T16:57:40.651Z,18.08
2023-04-17T17:00:08.754Z,10.45
2023-04-17T17:02:36.891Z,9.52
2023-04-17T17:05:04.654Z,14.02
2023-04-17T17:07:32.350Z,36.33
2023-04-17T17:10:03.426Z,23.98
2023-04-17T17:12:31.125Z,11.75
2023-04-17T17:14:59.440Z,13.07
2023-04-17T17:17:26.654Z,10.55
2023-04-17T17:19:54.033Z,11.43
2023-04-17T17:22:21.588Z,12.15
2023-04-17T17:24:48.728Z,9.70
2023-04-17T17:27:15.949Z,8.57
2023-04-17T17:29:43.142Z,14.73
2023-04-17T17:32:10.489Z,9.68
2023-04-17T17:34:37.749Z,13.27
2023-04-17T17:37:05.075Z,10.88
2023-04-17T17:39:32.293Z,10.18
2023-04-17T17:42:00.946Z,8.38
2023-04-17T17:44:28.149Z,9.55
2023-04-17T17:46:55.467Z,12.38
2023-04-17T17:49:22.748Z,9.00
2023-04-17T17:51:50.059Z,10.85
2023-04-17T17:54:17.254Z,11.10
2023-04-17T17:56:44.418Z,9.55
2023-04-17T17:59:11.635Z,13.00
2023-04-17T18:01:40.368Z,10.75
2023-04-17T18:04:07.924Z,12.00
2023-04-17T18:06:35.448Z,10.75
2023-04-17T18:09:03.785Z,13.45
2023-04-17T18:11:30.943Z,10.20
2023-04-17T18:13:58.252Z,11.07
2023-04-17T18:16:25.504Z,11.23
2023-04-17T18:18:52.953Z,10.50
2023-04-17T18:21:20.175Z,12.05
2023-04-17T18:23:47.390Z,13.35
2023-04-17T18:26:14.637Z,11.05
2023-04-17T18:28:42.893Z,119.47
2023-04-17T18:31:11.022Z,30.27
2023-04-17T18:33:38.624Z,17.25
2023-04-17T18:36:06.036Z,11.52
2023-04-17T18:38:33.228Z,13.63
2023-04-17T18:41:01.127Z,12.20
2023-04-17T18:43:28.884Z,13.85
2023-04-17T18:45:56.232Z,11.70
2023-04-17T18:48:24.294Z,17.48
2023-04-17T18:50:51.607Z,14.13
2023-04-17T18:53:18.879Z,12.75
2023-04-17T18:55:46.101Z,12.38
2023-04-17T18:58:13.382Z,14.23
2023-04-17T19:00:40.613Z,12.20
2023-04-17T19:03:07.853Z,12.02
2023-04-17T19:05:35.173Z,14.65
2023-04-17T19:08:02.431Z,12.35
2023-04-17T19:10:30.065Z,12.48
2023-04-17T19:12:57.285Z,12.25
2023-04-17T19:15:24.526Z,12.65
2023-04-17T19:17:52.335Z,18.42
2023-04-17T19:20:19.865Z,14.50
2023-04-17T19:22:47.005Z,13.48
2023-04-17T19:25:14.273Z,13.40
2023-04-17T19:27:41.454Z,12.30
2023-04-17T19:30:09.173Z,13.18
2023-04-17T19:32:36.396Z,19.00
2023-04-17T19:35:03.684Z,13.30
2023-04-17T19:37:30.902Z,21.67
2023-04-17T19:39:58.081Z,15.80
2023-04-17T19:42:25.706Z,14.70
2023-04-17T19:44:52.906Z,15.88
2023-04-17T19:47:20.078Z,12.53
2023-04-17T19:49:47.272Z,13.43
2023-04-17T19:52:15.155Z,12.38
2023-04-17T19:54:45.353Z,13.40
2023-04-17T19:57:12.558Z,15.95
2023-04-17T19:59:39.819Z,17.33
2023-04-17T20:02:07.447Z,13.23
2023-04-17T20:04:34.692Z,13.05
2023-04-17T20:07:02.154Z,16.40
2023-04-17T20:09:29.311Z,13.70
2023-04-17T20:11:56.690Z,12.97
2023-04-17T20:14:24.906Z,18.63
2023-04-17T20:16:52.156Z,13.50
2023-04-17T20:19:20.388Z,14.60
2023-04-17T20:21:47.707Z,14.10
2023-04-17T20:24:16.074Z,15.13
2023-04-17T20:26:48.568Z,14.97
2023-04-17T20:29:16.058Z,20.07
2023-04-17T20:31:43.339Z,17.93
2023-04-17T20:34:10.698Z,17.00
2023-04-17T20:36:37.969Z,14.93
2023-04-17T20:39:05.407Z,15.90
2023-04-17T20:41:32.551Z,16.60
2023-04-17T20:44:00.680Z,14.77
2023-04-17T20:46:28.743Z,14.80
2023-04-17T20:48:56.004Z,14.40
2023-04-17T20:51:27.359Z,12.30
2023-04-17T20:53:55.233Z,15.60
2023-04-17T20:56:23.041Z,14.40
2023-04-17T20:58:50.428Z,15.53
2023-04-17T21:01:17.793Z,15.87
2023-04-17T21:03:45.338Z,16.57
2023-04-17T21:06:12.645Z,16.27
2023-04-17T21:08:39.926Z,15.50
2023-04-17T21:11:08.538Z,14.30
2023-04-17T21:13:35.816Z,16.47
2023-04-17T21:16:03.084Z,15.90
2023-04-17T21:18:30.455Z,16.50
2023-04-17T21:20:57.613Z,15.07
2023-04-17T21:23:24.828Z,14.87
2023-04-17T21:25:53.520Z,19.43
2023-04-17T21:28:20.736Z,15.03
2023-04-17T21:30:54.068Z,18.03
2023-04-17T21:33:21.366Z,22.67
2023-04-17T21:35:48.609Z,17.37
2023-04-17T21:38:15.859Z,14.13
2023-04-17T21:40:51.073Z,14.77
2023-04-17T21:43:18.930Z,13.37
2023-04-17T21:45:46.492Z,13.17
2023-04-17T21:48:15.210Z,16.00
2023-04-17T21:50:43.358Z,13.30
2023-04-17T21:53:10.975Z,15.03
2023-04-17T21:55:38.714Z,14.70
2023-04-17T21:58:05.902Z,13.67
2023-04-17T22:00:33.049Z,12.17
2023-04-17T22:03:00.707Z,13.27
2023-04-17T22:05:28.021Z,14.97
2023-04-17T22:07:55.661Z,15.60
2023-04-17T22:10:23.312Z,14.33
2023-04-17T22:12:50.514Z,14.80
2023-04-17T22:15:17.776Z,13.40
2023-04-17T22:17:44.998Z,9.60
2023-04-17T22:20:12.535Z,11.67
2023-04-17T22:22:40.289Z,14.20
2023-04-17T22:25:10.677Z,11.80
2023-04-17T22:27:38.366Z,12.17
2023-04-17T22:30:06.308Z,11.97
2023-04-17T22:32:36.420Z,15.40
2023-04-17T22:35:04.373Z,13.57
2023-04-17T22:37:31.612Z,20.37
2023-04-17T22:39:58.804Z,17.20
2023-04-17T22:42:25.989Z,10.23
2023-04-17T22:44:53.389Z,10.10
2023-04-17T22:47:21.852Z,11.33
2023-04-17T22:49:49.086Z,9.83
2023-04-17T22:52:16.241Z,11.67
2023-04-17T22:54:43.493Z,11.53
2023-04-17T22:57:11.119Z,10.53
2023-04-17T22:59:38.299Z,16.90
2023-04-17T23:02:05.703Z,14.50
2023-04-17T23:04:32.975Z,10.57
2023-04-17T23:07:00.568Z,12.70
2023-04-17T23:09:27.810Z,9.67
2023-04-17T23:11:54.996Z,9.80
2023-04-17T23:14:22.136Z,10.10
2023-04-17T23:16:49.298Z,12.63
2023-04-17T23:19:16.494Z,12.30
2023-04-17T23:21:43.680Z,20.17
2023-04-17T23:24:11.646Z,11.20
2023-04-17T23:26:39.018Z,8.30
2023-04-17T23:29:06.234Z,13.23
2023-04-17T23:31:33.492Z,17.57
2023-04-17T23:34:00.736Z,11.30
2023-04-17T23:36:27.896Z,10.47
2023-04-17T23:38:55.108Z,8.90
2023-04-17T23:41:22.291Z,12.73
2023-04-17T23:43:49.542Z,8.90
2023-04-17T23:46:16.764Z,11.53
2023-04-17T23:48:43.919Z,10.70
2023-04-17T23:51:11.092Z,11.03
2023-04-17T23:53:38.266Z,11.30
2023-04-17T23:56:05.513Z,8.83
2023-04-17T23:58:32.613Z,9.43
